Weather observations for the past three days for
Rogers City, Presque Isle County Airport
Imperial (Metric)
Date Time (edt) Wind (mph) Vis. (mi.) Weather Sky Cond. Temperature (ºF) Relative Humidity Wind Chill (°F) Heat Index (°F) Pressure Precipitation (in)
Air Dwpt 6 hour altimeter (in) sea level (mb) 1 hr 3 hr 6 hr
Max. Min.
04 19:35 Vrbl 6 10.00 Light Rain OVC080 46.4 41 82% 44 29.38 0.0
04 19:15 N 8 8.00 Light Rain BKN065 OVC090 46.4 41 82% 43 29.38 0.0
04 18:55 N 18 G 29 10.00 Overcast OVC090 51.8 37.4 58% 29.38 0.0
04 18:35 N 12 G 23 10.00 Overcast BKN090 OVC110 64.4 35.6 34% 29.34 0.0
04 18:15 SW 13 G 25 10.00 Overcast OVC100 73.4 37.4 27% 29.31 0.0
04 17:55 SW 20 G 36 10.00 Mostly Cloudy BKN100 BKN120 73.4 35.6 25% 29.31 0.0
04 17:35 W 18 G 25 10.00 Overcast SCT100 OVC120 73.4 37.4 27% 29.3 0.0
04 17:15 W 15 G 20 10.00 Overcast FEW070 OVC090 73.4 35.6 25% 29.3 0.0
04 16:55 W 20 G 38 10.00 Overcast FEW070 OVC100 73.4 35.6 25% 29.3 0.0
04 16:35 W 15 G 26 10.00 Overcast OVC100 75.2 33.8 22% 76 29.3 0.0
04 16:15 SW 21 G 28 10.00 Mostly Cloudy and Breezy BKN100 75.2 33.8 22% 76 29.29 0.0
04 15:55 SW 18 G 31 10.00 Partly Cloudy SCT110 77 33.8 21% 77 29.3 0.0
04 15:35 SW 21 G 37 10.00 A Few Clouds and Breezy FEW110 77 32 19% 77 29.3 0.0
04 15:15 SW 29 G 36 10.00 A Few Clouds and Windy FEW110 77 30.2 18% 77 29.3 0.0
04 14:55 SW 22 G 35 10.00 A Few Clouds and Breezy FEW110 77 32 19% 77 29.31 0.0
04 14:35 SW 21 G 35 10.00 Fair and Breezy CLR 77 33.8 21% 77 29.32 0.0
04 14:15 SW 23 G 36 10.00 Fair and Breezy CLR 75.2 32 21% 76 29.33 0.0
04 13:55 SW 20 G 29 10.00 Fair CLR 75.2 33.8 74.7 45.7 22% 76 29.33 0.0
04 13:35 SW 25 G 35 10.00 Fair and Breezy CLR 73.4 32 22% 29.35 0.0
04 13:15 SW 26 G 33 10.00 Fair and Windy CLR 73.4 33.8 23% 29.35 0.0
04 12:55 SW 20 G 35 10.00 Fair CLR 73.4 33.8 23% 29.36 0.0
04 12:35 SW 17 G 21 10.00 Fair CLR 73.4 35.6 25% 29.37 0.0
04 12:15 SW 16 G 24 10.00 Fair CLR 71.6 35.6 27% 29.39 0.0
04 11:55 SW 17 G 23 10.00 Fair CLR 69.8 37.4 31% 29.41 0.0
04 11:35 SW 14 G 21 10.00 Fair CLR 68 41 38% 29.42 0.0
04 11:15 S 13 10.00 Fair CLR 64.4 44.6 49% 29.43 0.0
04 10:55 S 10 10.00 Fair CLR 62.6 44.6 52% 29.43 0.0
04 10:35 S 10 10.00 Fair CLR 60.8 42.8 52% 29.44 0.0
04 10:15 S 13 10.00 Fair CLR 59 42.8 55% 29.45 0.0
04 09:55 S 12 10.00 Fair CLR 57.2 44.6 63% 29.46 0.0
04 09:35 S 12 10.00 Fair CLR 55.4 42.8 63% 29.47 0.0
04 09:15 S 10 10.00 Fair CLR 53.6 44.6 72% 29.48 0.0
04 08:55 SW 10 10.00 Fair CLR 50 42.8 76% 46 29.48 0.0
04 08:35 SW 9 G 16 10.00 Fair CLR 48.2 42.8 82% 45 29.49 0.0
04 08:15 SW 12 10.00 Fair CLR 48.2 42.8 82% 44 29.5 0.0
04 07:55 SW 8 10.00 Fair CLR 46.4 42.8 45.7 41.9 87% 43 29.5 0.0
04 07:35 S 8 10.00 Fair CLR 44.6 41 87% 41 29.51 0.0
04 07:15 S 10 10.00 Fair CLR 44.6 41 87% 40 29.5 0.0
04 06:55 SW 9 10.00 Fair CLR 42.8 41 93% 38 29.51 0.0
04 06:35 S 8 10.00 Fair CLR 42.8 39.2 87% 39 29.51 0.0
04 06:15 S 7 10.00 Fair CLR 42.8 39.2 87% 39 29.52 0.0
04 05:55 SW 7 10.00 Fair CLR 42.8 39.2 87% 39 29.53 0.0
04 05:35 S 7 10.00 Fair CLR 42.8 39.2 87% 39 29.53 0.0
04 05:15 S 7 10.00 Fair CLR 44.6 41 87% 41 29.54 0.0
04 04:55 SW 6 10.00 Fair CLR 44.6 41 87% 42 29.54 0.0
04 04:35 SW 8 10.00 Fair CLR 44.6 41 87% 41 29.55 0.0
04 04:15 SW 7 10.00 Fair CLR 44.6 41 87% 41 29.55 0.0
04 03:55 SW 7 10.00 Fair CLR 44.6 41 87% 41 29.56 0.0
04 03:35 SW 8 10.00 Fair CLR 44.6 41 87% 41 29.57 0.0
04 03:15 SW 7 10.00 Fair CLR 44.6 41 87% 41 29.57 0.0
04 02:55 SW 9 10.00 Fair CLR 44.6 41 87% 40 29.58 0.0
04 02:35 SW 8 10.00 Fair CLR 44.6 41 87% 41 29.58 0.0
04 02:15 SW 7 10.00 Fair CLR 44.6 41 87% 41 29.59 0.0
04 01:55 SW 7 10.00 Fair CLR 44.6 41 46 40.6 87% 41 29.59 0.0
04 01:35 SW 6 10.00 Fair CLR 46.4 42.8 87% 44 29.59 0.0
04 01:15 SW 6 10.00 Fair CLR 44.6 42.8 93% 42 29.59 0.0
04 00:55 SW 5 1.25 Fog/Mist SCT055 41 41 100% 38 29.59 0.0
04 00:35 N 1 6.00 Fog/Mist BKN065 41 41 100% 29.6 0.0
04 00:15 SW 5 10.00 Partly Cloudy FEW050 SCT065 42.8 42.8 100% 41 29.6 0.0
03 23:55 W 3 10.00 Partly Cloudy SCT060 44.6 42.8 93% 29.61 0.0
03 23:35 W 3 10.00 Overcast OVC060 46.4 42.8 87% 29.61 0.0
03 23:15 SW 6 7.00 Fog/Mist SCT050 BKN100 44.6 42.8 93% 42 29.61 0.0
03 22:55 S 3 2.50 Fog/Mist BKN110 42.8 42.8 100% 29.61 0.0
03 22:35 SE 3 3.00 Fog/Mist SCT065 BKN110 42.8 42.8 100% 29.61 0.0
03 22:15 SE 3 3.00 Fog/Mist BKN065 BKN095 42.8 41 93% 29.62 0.0
03 21:55 E 2 2.50 Fog/Mist FEW075 BKN095 41 41 100% 29.62 0.0
03 21:35 E 3 5.00 Fog/Mist OVC095 42.8 41 93% 29.63 0.0
03 21:15 SE 5 5.00 Fog/Mist BKN095 BKN110 42.8 41 93% 41 29.62 0.0
03 20:55 SE 3 5.00 Fog/Mist SCT050 SCT065 BKN110 42.8 41 93% 29.62 0.0 0.12
03 20:35 SE 1 4.00 Unknown Precip Fog/Mist SCT050 BKN065 41 41 100% 29.64 0.0
03 20:15 NW 5 4.00 Rain Fog/Mist FEW032 SCT040 BKN048 41 39.2 93% 38 29.65 0.0
03 19:55 NW 13 G 26 4.00 Rain Fog/Mist FEW029 BKN036 OVC045 44.6 42.8 61.5 44.8 93% 39 29.64 0.0 0.08
03 19:35 NW 17 10.00 Light Rain BKN048 OVC055 57.2 42.8 59% 29.61 0.0
03 19:15 SW 6 10.00 Overcast BKN048 OVC055 59 41 51% 29.58 0.0
03 18:55 SW 8 10.00 Overcast SCT050 BKN065 OVC085 59 41 51% 29.58 0.0
03 18:35 SW 5 10.00 Overcast FEW050 SCT065 OVC085 59 42.8 55% 29.59 0.0
03 18:15 W 13 G 17 10.00 Mostly Cloudy SCT048 BKN055 BKN065 59 41 51% 29.6 0.0
03 17:55 SW 17 10.00 Overcast OVC048 59 41 51% 29.61 0.0
03 17:35 W 17 G 24 10.00 Mostly Cloudy BKN046 BKN090 59 41 51% 29.61 0.0
03 17:15 W 13 G 22 10.00 Mostly Cloudy FEW055 BKN080 60.8 39.2 45% 29.61 0.0
03 16:55 W 13 G 20 10.00 Overcast BKN055 OVC080 53.6 41 63% 29.62 0.0
03 16:35 NE 8 10.00 Mostly Cloudy SCT048 BKN055 48.2 39.2 71% 45 29.62 0.0
03 16:15 NE 7 10.00 Overcast SCT043 BKN048 OVC065 50 39.2 67% 48 29.63 0.0
03 15:55 Vrbl 5 G 16 10.00 Overcast FEW039 SCT049 OVC065 57.2 41 55% 29.64 0.0
03 15:35 W 8 10.00 Mostly Cloudy SCT034 BKN049 BKN065 55.4 42.8 63% 29.65 0.0
03 15:15 E 6 10.00 Overcast BKN034 OVC040 50 41 71% 48 29.66 0.0
03 14:55 Vrbl 5 10.00 Mostly Cloudy SCT034 BKN040 BKN100 50 42.8 76% 49 29.67 0.0
03 14:35 SE 6 10.00 Mostly Cloudy FEW065 BKN110 48.2 42.8 82% 46 29.68 0.0
03 14:15 SE 7 10.00 Overcast SCT046 BKN065 OVC120 48.2 42.8 82% 46 29.68 0.0
03 13:55 SE 6 10.00 Overcast BKN038 OVC046 44.6 39.2 45 39.2 81% 42 29.7 0.0
03 13:35 SE 6 10.00 Light Rain BKN037 OVC046 44.6 39.2 81% 42 29.7 0.0
03 13:15 E 2 10.00 Light Rain BKN032 BKN040 OVC050 42.8 37.4 81% 29.71 0.0
03 12:55 Vrbl 1 10.00 Overcast OVC032 41 37.4 87% 29.72 0.0
03 12:35 E 3 10.00 Light Rain BKN034 OVC046 41 35.6 81% 29.73 0.0
03 12:15 E 3 10.00 Light Rain OVC049 39.2 35.6 87% 29.73 0.0
03 11:55 NE 3 10.00 Light Rain OVC049 41 35.6 81% 29.74 0.0
03 11:35 Calm 10.00 Light Rain OVC047 42.8 37.4 81% 29.74 0.0
03 11:15 SW 3 10.00 Overcast OVC049 42.8 35.6 76% 29.74 0.0
03 10:55 E 5 10.00 Light Drizzle BKN049 OVC060 42.8 33.8 71% 41 29.73 0.0
03 10:35 Vrbl 2 10.00 Light Rain OVC047 42.8 33.8 71% 29.73 0.0
03 10:15 SE 3 10.00 Light Rain BKN041 OVC050 42.8 32 66% 29.74 0.0
03 09:55 S 5 10.00 Light Rain BKN050 OVC060 42.8 32 66% 41 29.75 0.0
03 09:35 Calm 10.00 Light Rain BKN050 OVC060 42.8 30.2 61% 29.76 0.0
03 09:15 S 5 10.00 Overcast SCT070 OVC075 42.8 24.8 49% 41 29.77 0.0
03 08:55 S 6 10.00 Overcast OVC080 41 24.8 53% 38 29.77 0.0
03 08:35 S 6 10.00 Overcast BKN080 OVC110 42.8 24.8 49% 40 29.77 0.0
03 08:15 S 6 10.00 Overcast FEW070 OVC100 42.8 24.8 49% 40 29.77 0.0
03 07:55 S 7 10.00 Overcast OVC090 41 23 39.9 32.2 49% 37 29.77 0.0
03 07:35 S 8 10.00 Overcast OVC090 39.2 23 52% 34 29.78 0.0
03 07:15 S 7 10.00 Overcast OVC090 39.2 21.2 48% 35 29.78 0.0
03 06:55 SW 5 10.00 Mostly Cloudy BKN090 BKN120 37.4 21.2 52% 34 29.78 0.0
03 06:35 SW 9 10.00 Mostly Cloudy BKN110 37.4 19.4 48% 31 29.78 0.0
03 06:15 SW 9 10.00 A Few Clouds FEW110 37.4 19.4 48% 31 29.78 0.0
03 05:55 S 10 10.00 A Few Clouds FEW110 37.4 19.4 48% 31 29.79 0.0
03 05:35 S 12 10.00 A Few Clouds FEW120 37.4 19.4 48% 30 29.8 0.0
03 05:15 SW 9 10.00 Fair CLR 35.6 19.4 52% 29 29.81 0.0
03 04:55 S 8 10.00 A Few Clouds FEW110 35.6 19.4 52% 30 29.82 0.0
03 04:35 SW 7 10.00 Fair CLR 35.6 19.4 52% 31 29.83 0.0
03 04:15 SW 8 10.00 Fair CLR 35.6 19.4 52% 30 29.84 0.0
03 03:55 SW 8 10.00 Fair CLR 35.6 19.4 52% 30 29.85 0.0
03 03:35 SW 8 10.00 Fair CLR 35.6 19.4 52% 30 29.85 0.0
03 03:15 SW 7 10.00 Fair CLR 33.8 19.4 56% 28 29.85 0.0
03 02:55 SW 6 10.00 Fair CLR 33.8 19.4 56% 29 29.86 0.0
03 02:35 SW 3 10.00 Fair CLR 32 21.2 64% 29.87 0.0
03 02:15 SW 5 10.00 Fair CLR 32 21.2 64% 28 29.88 0.0
03 01:55 SW 5 10.00 Fair CLR 32 23 44.1 26.8 69% 28 29.88 0.0
03 01:35 SW 6 10.00 Fair CLR 33.8 24.8 70% 29 29.89 0.0
03 01:15 SW 7 10.00 Fair CLR 33.8 24.8 70% 28 29.89 0.0
03 00:55 S 5 10.00 Fair CLR 35.6 24.8 65% 32 29.9 0.0
03 00:35 S 3 10.00 Fair CLR 32 24.8 75% 29.9 0.0
03 00:15 SW 1 10.00 Fair CLR 30.2 23 75% 29.91 0.0
02 23:55 SW 1 10.00 Fair CLR 28.4 23 80% 29.91 0.0
02 23:35 S 3 10.00 Fair CLR 32 23 69% 29.92 0.0
02 23:15 Vrbl 1 10.00 Fair CLR 32 24.8 75% 29.92 0.0
02 22:55 Calm 10.00 Fair CLR 33.8 24.8 70% 29.93 0.0
02 22:35 S 2 10.00 Fair CLR 39.2 23 52% 29.93 0.0
02 22:15 SE 5 10.00 Fair CLR 39.2 23 52% 36 29.93 0.0
02 21:55 SE 6 10.00 Fair CLR 41 23 49% 38 29.93 0.0
02 21:35 SE 6 10.00 Fair CLR 41 23 49% 38 29.93 0.0
02 21:15 S 2 10.00 Fair CLR 35.6 24.8 65% 29.92 0.0
02 20:55 S 2 10.00 Fair CLR 37.4 24.8 60% 29.92 0.0
02 20:35 Vrbl 1 10.00 Fair CLR 41 23 49% 29.92 0.0
02 20:15 N 5 10.00 Fair CLR 42.8 23 46% 41 29.92 0.0
02 19:55 N 6 10.00 Fair CLR 44.6 21.2 49.5 44.1 39% 42 29.93 0.0
02 19:35 N 7 10.00 Fair CLR 44.6 21.2 39% 41 29.93 0.0
02 19:15 N 7 10.00 Fair CLR 44.6 23 43% 41 29.93 0.0
02 18:55 N 10 10.00 Fair CLR 46.4 21.2 37% 42 29.93 0.0
02 18:35 N 9 10.00 Fair CLR 46.4 23 40% 42 29.93 0.0
02 18:15 N 7 10.00 Fair CLR 46.4 21.2 37% 43 29.93 0.0
02 17:55 N 10 10.00 Fair CLR 48.2 21.2 34% 44 29.93 0.0
02 17:35 N 10 10.00 Fair CLR 48.2 21.2 34% 44 29.93 0.0
02 17:15 N 13 10.00 Fair CLR 48.2 19.4 32% 43 29.94 0.0
02 16:55 N 12 10.00 Fair CLR 48.2 21.2 34% 44 29.94 0.0
02 16:35 N 12 G 18 10.00 Fair CLR 46.4 17.6 32% 42 29.94 0.0
02 16:15 N 14 10.00 Fair CLR 46.4 19.4 34% 41 29.95 0.0
02 15:55 N 10 10.00 Fair CLR 48.2 17.6 29% 44 29.95 0.0
02 15:35 N 14 10.00 Fair CLR 48.2 19.4 32% 43 29.96 0.0
02 15:15 N 12 10.00 Fair CLR 48.2 19.4 32% 44 29.97 0.0
02 14:55 N 13 10.00 Fair CLR 48.2 21.2 34% 43 29.97 0.0
02 14:35 N 12 G 20 10.00 Fair CLR 48.2 19.4 32% 44 29.98 0.0
02 14:15 N 15 10.00 Fair CLR 46.4 17.6 32% 41 29.98 0.0
02 13:55 N 12 G 17 10.00 Fair CLR 46.4 21.2 46.4 34.5 37% 42 29.98 0.0
02 13:35 N 13 10.00 A Few Clouds FEW055 46.4 21.2 37% 41 29.98 0.0
02 13:15 N 12 10.00 Partly Cloudy SCT055 42.8 26.6 53% 37 29.99 0.0
02 12:55 N 10 10.00 Fair CLR 44.6 28.4 53% 40 29.99 0.0
02 12:35 N 9 G 16 10.00 Fair CLR 44.6 28.4 53% 40 30 0.0
02 12:15 N 14 10.00 Fair CLR 44.6 28.4 53% 39 30 0.0
02 11:55 N 14 10.00 Fair CLR 42.8 30.2 61% 36 30 0.0
02 11:35 N 10 10.00 Fair CLR 42.8 30.2 61% 38 30 0.0
02 11:15 N 9 10.00 Partly Cloudy SCT046 42.8 32 66% 38 30 0.0
02 10:55 N 9 10.00 Partly Cloudy SCT042 41 30.2 66% 36 30.01 0.0
02 10:35 N 9 10.00 Fair CLR 42.8 28.4 57% 38 30.01 0.0
02 10:15 W 9 10.00 Fair CLR 42.8 24.8 49% 38 30.01 0.0
02 09:55 NW 8 G 16 10.00 Fair CLR 41 24.8 53% 36 30.02 0.0
02 09:35 W 9 10.00 Fair CLR 41 26.6 57% 36 30.02 0.0
02 09:15 NW 9 10.00 Fair CLR 39.2 26.6 61% 34 30.02 0.0
02 08:55 W 10 10.00 Fair CLR 37.4 26.6 65% 31 30.03 0.0
02 08:35 NW 9 G 17 10.00 Fair CLR 37.4 26.6 65% 31 30.03 0.0
02 08:15 NW 8 10.00 Fair CLR 35.6 26.6 70% 30 30.03 0.0
02 07:55 W 8 10.00 Fair CLR 35.6 24.8 34.7 30 65% 30 30.03 0.0
02 07:35 W 8 10.00 Fair CLR 33.8 24.8 70% 28 30.03 0.0
02 07:15 W 6 10.00 Mostly Cloudy BKN080 32 24.8 75% 27 30.02 0.0
02 06:55 W 6 10.00 Overcast OVC080 30.2 24.8 80% 25 30.02 0.0
02 06:35 W 7 10.00 Overcast OVC080 32 24.8 75% 26 30.02 0.0
02 06:15 W 7 10.00 Overcast OVC080 30.2 23 75% 24 30.02 0.0
02 05:55 W 6 10.00 Mostly Cloudy BKN080 30.2 23 75% 25 30.02 0.0
02 05:35 W 7 10.00 Mostly Cloudy BKN080 30.2 23 75% 24 30.02 0.0
02 05:15 W 5 10.00 Mostly Cloudy BKN080 30.2 24.8 80% 26 30.01 0.0
02 04:55 W 6 10.00 Overcast OVC080 32 24.8 75% 27 30.02 0.0
02 04:35 W 5 10.00 Overcast OVC080 30.2 24.8 80% 26 30.02 0.0
02 04:15 W 5 10.00 Overcast OVC080 30.2 24.8 80% 26 30.01 0.0
02 03:55 W 7 10.00 Overcast OVC080 30.2 24.8 80% 24 30.01 0.0
02 03:35 W 5 10.00 Overcast OVC080 30.2 24.8 80% 26 30.01 0.0
02 03:15 W 5 10.00 Overcast OVC080 32 24.8 75% 28 30.01 0.0
02 02:55 W 5 10.00 Overcast OVC080 32 24.8 75% 28 30.01 0.0
02 02:35 W 5 10.00 Overcast OVC080 33.8 24.8 70% 30 30.02 0.0
02 02:15 NW 6 10.00 Overcast OVC080 33.8 24.8 70% 29 30.02 0.0
02 01:55 W 6 10.00 Overcast OVC080 35.6 24.8 38.5 34.5 65% 31 30.02 0.0
02 01:35 NW 5 10.00 Overcast OVC080 35.6 24.8 65% 32 30.02 0.0
02 01:15 NW 8 10.00 Overcast OVC070 35.6 24.8 65% 30 30.02 0.0
02 00:55 NW 8 10.00 Overcast OVC070 35.6 24.8 65% 30 30.02 0.0
02 00:35 NW 6 10.00 Overcast OVC070 35.6 24.8 65% 31 30.02 0.0
02 00:15 NW 8 10.00 Overcast OVC070 35.6 24.8 65% 30 30.02 0.0
01 23:55 NW 9 10.00 Overcast OVC070 35.6 24.8 65% 29 30.02 0.0
01 23:35 NW 9 10.00 Overcast OVC070 35.6 24.8 65% 29 30.02 0.0
01 23:15 NW 8 10.00 Overcast OVC070 35.6 26.6 70% 30 30.02 0.0
01 22:55 NW 9 10.00 Overcast OVC070 35.6 24.8 65% 29 30.02 0.0
01 22:35 NW 9 10.00 Overcast OVC070 35.6 24.8 65% 29 30.02 0.0
01 22:15 NW 7 10.00 Overcast OVC070 37.4 24.8 60% 33 30.02 0.0
01 21:55 NW 6 10.00 Overcast OVC070 35.6 24.8 65% 31 30.02 0.0
01 21:35 NW 6 10.00 Overcast OVC070 35.6 26.6 70% 31 30.02 0.0
01 21:15 NW 6 10.00 Overcast OVC070 35.6 26.6 70% 31 30.01 0.0
01 20:55 NW 6 10.00 Mostly Cloudy BKN070 35.6 24.8 65% 31 30.01 0.0
01 20:35 NW 9 10.00 Overcast OVC070 37.4 23 56% 31 30 0.0
01 20:15 NW 7 10.00 Overcast OVC070 37.4 24.8 60% 33 30 0.0
01 19:55 NW 8 10.00 Overcast OVC070 39.2 24.8 43.2 38.3 56% 34 30 0.0
Date Time (edt) Wind (mph) Vis. (mi.) Weather Sky Cond. Air Dwpt Max. Min. Relative Humidity Wind Chill (°F) Heat Index (°F) altimeter (in) sea level (mb) 1 hr 3 hr 6 hr
6 hour
Temperature (ºF) Pressure Precipitation (in)